Time;durP1;ratioP1;P1;durP2;ratioP2;P2;SDS_P1;SDS_P2;PMS_P1;PMS_P2;Temp;Humidity;BMP_temperature;BMP_pressure;BME280_temperature;BME280_humidity;BME280_pressure;Samples;Min_cycle;Max_cycle;Signal;HPM_P1;HPM_P2
2024/03/09 00:00:04;;;;;;;5.60;2.25;;;;;;;;;;2047412;28;20015;-43
2024/03/09 00:01:07;;;;;;;4.82;2.60;;;;;;;;;;2055103;28;20051;-43
2024/03/09 00:02:11;;;;;;;6.70;2.80;;;;;;;;;;2055286;28;20019;-44
2024/03/09 00:03:12;;;;;;;5.18;1.88;;;;;;;;;;2048344;28;20471;-44
2024/03/09 00:04:14;;;;;;;5.05;2.83;;;;;;;;;;2048260;28;20043;-44
2024/03/09 00:05:16;;;;;;;5.70;3.22;;;;;;;;;;2047842;28;20118;-44
2024/03/09 00:06:17;;;;;;;6.50;2.25;;;;;;;;;;2047981;29;20015;-43
2024/03/09 00:07:18;;;;;;;6.03;2.72;;;;;;;;;;2047959;28;20027;-44
2024/03/09 00:08:21;;;;;;;5.47;2.70;;;;;;;;;;2048252;28;20030;-43
2024/03/09 00:09:22;;;;;;;4.72;2.45;;;;;;;;;;2040568;29;20404;-44
2024/03/09 00:10:26;;;;;;;3.97;2.60;;;;;;;;;;2047722;28;20043;-44
2024/03/09 00:11:27;;;;;;;5.55;3.10;;;;;;;;;;2048528;28;20026;-43
2024/03/09 00:12:28;;;;;;;4.18;2.30;;;;;;;;;;2048324;28;20046;-44
2024/03/09 00:13:29;;;;;;;4.45;2.60;;;;;;;;;;2048295;28;20504;-43
2024/03/09 00:14:31;;;;;;;4.18;2.53;;;;;;;;;;2048751;29;20026;-41
2024/03/09 00:15:33;;;;;;;3.83;2.40;;;;;;;;;;2048280;28;20031;-42
2024/03/09 00:16:36;;;;;;;5.07;2.35;;;;;;;;;;2047744;28;20027;-43
2024/03/09 00:17:41;;;;;;;5.38;2.28;;;;;;;;;;2047627;28;20043;-43
2024/03/09 00:18:43;;;;;;;3.17;2.35;;;;;;;;;;2048579;28;20073;-42
2024/03/09 00:19:44;;;;;;;4.43;2.55;;;;;;;;;;2044875;29;20059;-44
2024/03/09 00:20:47;;;;;;;5.55;2.83;;;;;;;;;;2048637;28;20556;-43
2024/03/09 00:21:48;;;;;;;5.15;2.47;;;;;;;;;;2043828;28;20501;-44
2024/03/09 00:22:52;;;;;;;2.97;2.17;;;;;;;;;;2042990;29;20041;-43
2024/03/09 00:23:54;;;;;;;4.75;2.30;;;;;;;;;;2040226;29;20105;-45
2024/03/09 00:24:55;;;;;;;5.22;2.30;;;;;;;;;;2046963;28;20030;-43
2024/03/09 00:25:57;;;;;;;5.55;2.20;;;;;;;;;;2042246;28;20028;-43
2024/03/09 00:26:59;;;;;;;2.97;2.08;;;;;;;;;;2045834;28;20035;-43
2024/03/09 00:28:01;;;;;;;3.03;2.15;;;;;;;;;;2047674;28;20022;-44
2024/03/09 00:29:02;;;;;;;3.95;2.30;;;;;;;;;;2047832;28;20019;-43
2024/03/09 00:30:06;;;;;;;3.67;2.15;;;;;;;;;;2048746;28;20019;-43
2024/03/09 00:31:07;;;;;;;4.20;2.33;;;;;;;;;;2045850;28;20027;-43
2024/03/09 00:32:09;;;;;;;3.20;2.20;;;;;;;;;;2040746;29;20028;-43
2024/03/09 00:33:10;;;;;;;2.53;1.90;;;;;;;;;;2045638;28;20031;-42
2024/03/09 00:34:12;;;;;;;3.38;1.52;;;;;;;;;;2048639;29;20886;-44
2024/03/09 00:35:13;;;;;;;3.25;1.83;;;;;;;;;;2048705;28;20371;-44
2024/03/09 00:36:17;;;;;;;2.95;1.77;;;;;;;;;;2048299;28;20018;-43
2024/03/09 00:37:18;;;;;;;3.00;1.77;;;;;;;;;;2044186;28;20562;-43
2024/03/09 00:38:19;;;;;;;2.53;1.25;;;;;;;;;;2047922;28;20015;-43
2024/03/09 00:39:21;;;;;;;4.13;1.50;;;;;;;;;;2047796;29;20079;-44
2024/03/09 00:40:28;;;;;;;5.15;1.83;;;;;;;;;;2044812;28;20058;-44
2024/03/09 00:41:29;;;;;;;2.95;1.52;;;;;;;;;;2048485;28;20106;-43
2024/03/09 00:42:32;;;;;;;2.40;1.52;;;;;;;;;;2048713;28;20023;-43
2024/03/09 00:43:37;;;;;;;1.77;1.27;;;;;;;;;;2048736;28;20471;-44
2024/03/09 00:44:38;;;;;;;4.82;1.60;;;;;;;;;;2048566;28;20030;-43
2024/03/09 00:45:39;;;;;;;2.55;1.60;;;;;;;;;;2048488;28;20031;-44
2024/03/09 00:46:41;;;;;;;2.70;1.40;;;;;;;;;;2048504;28;20027;-44
2024/03/09 00:47:46;;;;;;;2.60;1.42;;;;;;;;;;2048001;29;20031;-43
2024/03/09 00:48:47;;;;;;;5.32;1.55;;;;;;;;;;2047952;29;20031;-43
2024/03/09 00:49:49;;;;;;;3.90;1.25;;;;;;;;;;2048604;28;20493;-42
2024/03/09 00:50:53;;;;;;;3.00;0.90;;;;;;;;;;2048618;29;20012;-43
2024/03/09 00:51:54;;;;;;;1.83;0.85;;;;;;;;;;2048341;28;20512;-43
2024/03/09 00:52:55;;;;;;;1.52;1.10;;;;;;;;;;2045637;28;20061;-44
2024/03/09 00:53:57;;;;;;;1.77;0.85;;;;;;;;;;2047165;29;20070;-43
2024/03/09 00:54:58;;;;;;;1.17;0.60;;;;;;;;;;2038926;29;20015;-43
2024/03/09 00:56:00;;;;;;;1.70;0.60;;;;;;;;;;2048066;29;20027;-43
2024/03/09 00:57:01;;;;;;;1.20;0.35;;;;;;;;;;2048129;29;20019;-44
2024/03/09 00:58:03;;;;;;;0.32;0.20;;;;;;;;;;2048488;28;20023;-44
2024/03/09 00:59:04;;;;;;;1.25;0.30;;;;;;;;;;2048313;28;20031;-43
2024/03/09 01:00:15;;;;;;;1.20;0.40;;;;;;;;;;2047607;29;20062;-44
2024/03/09 01:01:18;;;;;;;1.77;0.30;;;;;;;;;;2046440;28;20402;-44
2024/03/09 01:02:19;;;;;;;0.63;0.28;;;;;;;;;;2047448;29;20376;-44
2024/03/09 01:03:21;;;;;;;0.93;0.20;;;;;;;;;;2048391;28;20062;-44
2024/03/09 01:04:25;;;;;;;0.45;0.20;;;;;;;;;;2048302;28;20421;-43
2024/03/09 01:05:26;;;;;;;0.60;0.32;;;;;;;;;;2049338;28;20031;-44
2024/03/09 01:06:28;;;;;;;0.98;0.20;;;;;;;;;;2047998;28;20042;-43
2024/03/09 01:07:30;;;;;;;0.68;0.30;;;;;;;;;;2048525;28;20475;-44
2024/03/09 01:08:34;;;;;;;1.65;0.20;;;;;;;;;;2048275;28;20031;-43
2024/03/09 01:09:35;;;;;;;1.02;0.30;;;;;;;;;;2048064;28;20056;-45
2024/03/09 01:10:37;;;;;;;0.88;0.20;;;;;;;;;;2048447;28;20107;-44
2024/03/09 01:11:38;;;;;;;0.60;0.10;;;;;;;;;;2047436;28;20043;-45
2024/03/09 01:12:39;;;;;;;1.50;0.30;;;;;;;;;;2047629;29;20063;-43
2024/03/09 01:13:41;;;;;;;0.52;0.20;;;;;;;;;;2048313;29;20479;-44
2024/03/09 01:14:43;;;;;;;1.23;0.20;;;;;;;;;;2049679;28;20102;-44
2024/03/09 01:15:45;;;;;;;1.60;0.55;;;;;;;;;;2047690;29;20037;-43
2024/03/09 01:16:46;;;;;;;1.00;0.30;;;;;;;;;;2047610;28;20110;-42
2024/03/09 01:17:47;;;;;;;0.68;0.32;;;;;;;;;;2048168;28;20106;-43
2024/03/09 01:18:52;;;;;;;0.65;0.30;;;;;;;;;;2047801;29;20035;-44
2024/03/09 01:19:53;;;;;;;1.48;0.30;;;;;;;;;;2047680;28;20023;-44
2024/03/09 01:20:54;;;;;;;0.60;0.20;;;;;;;;;;2048404;28;20407;-43
2024/03/09 01:22:04;;;;;;;0.25;0.17;;;;;;;;;;2048512;29;20395;-43
2024/03/09 01:23:06;;;;;;;0.43;0.20;;;;;;;;;;2048319;28;20041;-43
2024/03/09 01:24:07;;;;;;;1.90;0.40;;;;;;;;;;2048366;28;20040;-43
2024/03/09 01:25:09;;;;;;;0.98;0.40;;;;;;;;;;2050863;28;20564;-43
2024/03/09 01:26:11;;;;;;;0.70;0.20;;;;;;;;;;2055516;28;20508;-44
2024/03/09 01:27:12;;;;;;;0.68;0.15;;;;;;;;;;2048502;29;20107;-43
2024/03/09 01:28:14;;;;;;;0.40;0.40;;;;;;;;;;2047501;28;20070;-43
2024/03/09 01:29:16;;;;;;;0.95;0.43;;;;;;;;;;2041724;28;20748;-44
2024/03/09 01:30:17;;;;;;;0.70;0.20;;;;;;;;;;2040573;29;20203;-44
2024/03/09 01:31:19;;;;;;;0.63;0.30;;;;;;;;;;2044585;28;20066;-43
2024/03/09 01:32:22;;;;;;;0.20;0.10;;;;;;;;;;2048515;28;20098;-44
2024/03/09 01:33:24;;;;;;;1.02;0.22;;;;;;;;;;2048372;28;20024;-44
2024/03/09 01:34:27;;;;;;;0.65;0.25;;;;;;;;;;2046077;28;20016;-44
2024/03/09 01:35:29;;;;;;;0.70;0.28;;;;;;;;;;2045995;28;20455;-43
2024/03/09 01:36:30;;;;;;;1.10;0.20;;;;;;;;;;2044739;28;20194;-44
2024/03/09 01:37:32;;;;;;;0.90;0.10;;;;;;;;;;2044210;29;20023;-44
2024/03/09 01:38:33;;;;;;;2.35;0.40;;;;;;;;;;2041411;28;20020;-44
2024/03/09 01:39:34;;;;;;;2.28;0.30;;;;;;;;;;2047703;29;20023;-43
2024/03/09 01:40:36;;;;;;;0.70;0.30;;;;;;;;;;2047485;29;20146;-44
2024/03/09 01:41:37;;;;;;;1.17;0.28;;;;;;;;;;2047480;28;20039;-43
2024/03/09 01:42:38;;;;;;;2.38;0.32;;;;;;;;;;2048151;29;20035;-44
2024/03/09 01:43:40;;;;;;;1.02;0.17;;;;;;;;;;2043794;28;20039;-42
2024/03/09 01:44:41;;;;;;;1.65;0.40;;;;;;;;;;2047830;28;20019;-43
2024/03/09 01:45:45;;;;;;;0.73;0.45;;;;;;;;;;2047319;28;20095;-44
2024/03/09 01:46:47;;;;;;;2.35;0.73;;;;;;;;;;2047366;29;20051;-42
2024/03/09 01:47:49;;;;;;;1.58;0.32;;;;;;;;;;2039742;29;20102;-45
2024/03/09 01:48:50;;;;;;;3.05;0.35;;;;;;;;;;2047451;29;20030;-44
2024/03/09 01:49:52;;;;;;;1.58;0.22;;;;;;;;;;2049225;28;20482;-43
2024/03/09 01:50:53;;;;;;;2.05;0.40;;;;;;;;;;2048906;28;20033;-44
2024/03/09 01:51:55;;;;;;;0.85;0.40;;;;;;;;;;2048389;28;20023;-43
2024/03/09 01:52:57;;;;;;;0.57;0.20;;;;;;;;;;2048491;28;20019;-43
2024/03/09 01:53:58;;;;;;;1.58;0.30;;;;;;;;;;2047474;29;20458;-44
2024/03/09 01:55:03;;;;;;;2.08;0.45;;;;;;;;;;2039799;29;20475;-43
2024/03/09 01:56:11;;;;;;;1.77;0.17;;;;;;;;;;2047669;29;20015;-43
2024/03/09 01:57:13;;;;;;;0.43;0.20;;;;;;;;;;2046450;29;20238;-43
2024/03/09 01:58:19;;;;;;;0.93;0.30;;;;;;;;;;2049607;28;20343;-44
2024/03/09 01:59:21;;;;;;;1.17;0.20;;;;;;;;;;2055993;28;20019;-43
2024/03/09 02:00:23;;;;;;;0.80;0.22;;;;;;;;;;2053574;28;20049;-43
2024/03/09 02:01:27;;;;;;;1.40;0.35;;;;;;;;;;2052670;28;20038;-45
2024/03/09 02:02:32;;;;;;;0.63;0.30;;;;;;;;;;2043080;28;20032;-45
2024/03/09 02:03:33;;;;;;;2.17;0.40;;;;;;;;;;2044576;28;20027;-45
2024/03/09 02:04:36;;;;;;;1.83;0.45;;;;;;;;;;2045904;28;20034;-44
2024/03/09 02:05:39;;;;;;;1.55;0.30;;;;;;;;;;2046676;28;20579;-45
2024/03/09 02:06:41;;;;;;;1.63;0.30;;;;;;;;;;2047416;28;20394;-45
2024/03/09 02:07:45;;;;;;;3.20;0.43;;;;;;;;;;2048099;28;20011;-45
2024/03/09 02:08:46;;;;;;;2.15;0.47;;;;;;;;;;2047998;28;20015;-45
2024/03/09 02:09:50;;;;;;;2.95;0.47;;;;;;;;;;2047507;28;20087;-44
2024/03/09 02:10:52;;;;;;;1.08;0.43;;;;;;;;;;2047475;28;20015;-44
2024/03/09 02:11:56;;;;;;;1.75;0.30;;;;;;;;;;2048149;28;20075;-44
2024/03/09 02:12:57;;;;;;;2.50;0.40;;;;;;;;;;2042846;29;20051;-45
2024/03/09 02:13:58;;;;;;;3.42;0.45;;;;;;;;;;2052696;28;20023;-45
2024/03/09 02:15:01;;;;;;;2.28;0.50;;;;;;;;;;2051923;28;20031;-45
2024/03/09 02:16:02;;;;;;;4.10;0.40;;;;;;;;;;2049170;28;20024;-42
2024/03/09 02:17:08;;;;;;;2.35;0.40;;;;;;;;;;2049552;28;20059;-45
2024/03/09 02:18:10;;;;;;;3.10;0.40;;;;;;;;;;2040918;29;20039;-44
2024/03/09 02:19:14;;;;;;;3.72;0.45;;;;;;;;;;2041263;29;20164;-44
2024/03/09 02:20:17;;;;;;;1.98;0.68;;;;;;;;;;2044366;29;20023;-44
2024/03/09 02:21:19;;;;;;;1.45;0.40;;;;;;;;;;2048706;28;20039;-43
2024/03/09 02:22:21;;;;;;;3.03;0.70;;;;;;;;;;2048794;28;20027;-43
2024/03/09 02:23:26;;;;;;;0.93;0.28;;;;;;;;;;2048920;28;20039;-44
2024/03/09 02:24:34;;;;;;;1.90;0.40;;;;;;;;;;2049668;28;20027;-43
2024/03/09 02:25:36;;;;;;;3.88;0.57;;;;;;;;;;2049173;28;20024;-45
2024/03/09 02:26:37;;;;;;;3.58;0.45;;;;;;;;;;2049504;28;20363;-44
2024/03/09 02:27:42;;;;;;;4.20;0.70;;;;;;;;;;2049374;28;20023;-45
2024/03/09 02:28:53;;;;;;;2.45;0.88;;;;;;;;;;2041037;29;20031;-44
2024/03/09 02:29:54;;;;;;;1.00;0.20;;;;;;;;;;2043722;28;20016;-44
2024/03/09 02:30:56;;;;;;;2.47;0.63;;;;;;;;;;2040908;29;20079;-44
2024/03/09 02:31:57;;;;;;;2.92;0.43;;;;;;;;;;2048297;28;20046;-44
2024/03/09 02:32:58;;;;;;;1.55;0.35;;;;;;;;;;2042043;28;20090;-46
2024/03/09 02:34:01;;;;;;;3.05;0.32;;;;;;;;;;2047505;28;20023;-43
2024/03/09 02:35:03;;;;;;;2.70;0.50;;;;;;;;;;2043251;28;20036;-44
2024/03/09 02:36:04;;;;;;;1.35;0.60;;;;;;;;;;2048689;29;20027;-43
2024/03/09 02:37:05;;;;;;;1.35;0.20;;;;;;;;;;2044943;28;20031;-42
2024/03/09 02:38:08;;;;;;;2.85;0.55;;;;;;;;;;2043808;28;20107;-43
2024/03/09 02:39:10;;;;;;;1.73;0.25;;;;;;;;;;2050004;28;20027;-43
2024/03/09 02:40:12;;;;;;;0.88;0.20;;;;;;;;;;2049657;29;20482;-42
2024/03/09 02:41:13;;;;;;;0.45;0.10;;;;;;;;;;2049035;29;20027;-43
2024/03/09 02:42:14;;;;;;;2.67;0.65;;;;;;;;;;2048915;28;20113;-44
2024/03/09 02:43:18;;;;;;;1.58;0.30;;;;;;;;;;2049527;28;20015;-43
2024/03/09 02:44:19;;;;;;;2.30;0.30;;;;;;;;;;2051779;28;20029;-44
2024/03/09 02:45:23;;;;;;;2.10;0.32;;;;;;;;;;2052367;28;20042;-45
2024/03/09 02:46:28;;;;;;;2.17;0.40;;;;;;;;;;2057480;28;20074;-44
2024/03/09 02:47:29;;;;;;;1.27;0.22;;;;;;;;;;2048747;29;20027;-45
2024/03/09 02:48:32;;;;;;;2.10;0.30;;;;;;;;;;2048714;28;20046;-45
2024/03/09 02:49:35;;;;;;;1.17;0.20;;;;;;;;;;2051194;28;20019;-44
2024/03/09 02:50:38;;;;;;;1.67;0.32;;;;;;;;;;2057630;28;20035;-45
2024/03/09 02:51:40;;;;;;;1.67;0.30;;;;;;;;;;2051584;28;20018;-45
2024/03/09 02:52:42;;;;;;;1.15;0.15;;;;;;;;;;2049336;28;20058;-44
2024/03/09 02:53:44;;;;;;;0.77;0.10;;;;;;;;;;2047024;29;20075;-45
2024/03/09 02:54:45;;;;;;;0.88;0.30;;;;;;;;;;2048599;29;20030;-45
2024/03/09 02:55:46;;;;;;;0.95;0.20;;;;;;;;;;2048420;28;20483;-45
2024/03/09 02:56:49;;;;;;;2.30;0.40;;;;;;;;;;2049483;29;20486;-44
2024/03/09 02:57:50;;;;;;;3.13;0.40;;;;;;;;;;2049372;28;20023;-45
2024/03/09 02:58:52;;;;;;;1.77;0.30;;;;;;;;;;2044191;28;20027;-43
2024/03/09 02:59:53;;;;;;;1.33;0.52;;;;;;;;;;2049411;29;20031;-45
2024/03/09 03:00:55;;;;;;;1.23;0.30;;;;;;;;;;2049377;29;20023;-46
2024/03/09 03:01:56;;;;;;;1.20;0.20;;;;;;;;;;2049406;28;20035;-44
2024/03/09 03:04:18;;;;;;;1.15;0.20;;;;;;;;;;2048490;28;20110;-44
2024/03/09 03:05:22;;;;;;;1.17;0.43;;;;;;;;;;2049091;28;20042;-45
2024/03/09 03:06:23;;;;;;;0.90;0.30;;;;;;;;;;2047789;28;20501;-44
2024/03/09 03:07:24;;;;;;;2.67;0.30;;;;;;;;;;2046778;28;20018;-44
2024/03/09 03:08:25;;;;;;;1.38;0.50;;;;;;;;;;2048560;28;20462;-44
2024/03/09 03:09:27;;;;;;;1.48;0.40;;;;;;;;;;2048386;29;20027;-47
2024/03/09 03:10:29;;;;;;;2.50;0.35;;;;;;;;;;2048448;29;20475;-45
2024/03/09 03:11:32;;;;;;;1.27;0.22;;;;;;;;;;2048740;28;20506;-44
2024/03/09 03:12:33;;;;;;;2.28;0.20;;;;;;;;;;2048175;28;20019;-43
2024/03/09 03:13:34;;;;;;;4.03;0.70;;;;;;;;;;2048225;28;20070;-44
2024/03/09 03:14:39;;;;;;;2.67;0.50;;;;;;;;;;2056927;28;20023;-46
2024/03/09 03:15:40;;;;;;;1.40;0.28;;;;;;;;;;2049214;28;20069;-43
2024/03/09 03:16:43;;;;;;;0.38;0.10;;;;;;;;;;2049027;28;20098;-43
2024/03/09 03:17:45;;;;;;;2.10;0.25;;;;;;;;;;2049065;28;20035;-44
2024/03/09 03:18:50;;;;;;;1.70;0.35;;;;;;;;;;2049275;28;20038;-44
2024/03/09 03:19:51;;;;;;;1.52;0.47;;;;;;;;;;2049094;28;20024;-44
2024/03/09 03:20:53;;;;;;;1.17;0.20;;;;;;;;;;2049187;28;20434;-44
2024/03/09 03:21:54;;;;;;;2.42;0.40;;;;;;;;;;2049137;28;20494;-46
2024/03/09 03:22:59;;;;;;;5.78;0.57;;;;;;;;;;2052499;28;20038;-44
2024/03/09 03:24:02;;;;;;;2.25;0.55;;;;;;;;;;2057131;28;20369;-46
2024/03/09 03:25:03;;;;;;;1.48;0.30;;;;;;;;;;2048083;28;20031;-44
2024/03/09 03:26:05;;;;;;;4.93;0.75;;;;;;;;;;2048712;28;20042;-44
2024/03/09 03:27:06;;;;;;;3.20;0.40;;;;;;;;;;2049119;28;20383;-44
2024/03/09 03:28:08;;;;;;;2.60;0.38;;;;;;;;;;2048911;28;20067;-46
2024/03/09 03:29:09;;;;;;;2.90;0.52;;;;;;;;;;2048596;28;20023;-46
2024/03/09 03:30:12;;;;;;;3.80;0.75;;;;;;;;;;2049199;29;20027;-45
2024/03/09 03:31:18;;;;;;;2.83;0.60;;;;;;;;;;2040215;29;20012;-45
2024/03/09 03:32:19;;;;;;;3.65;0.30;;;;;;;;;;2040832;29;20447;-45
2024/03/09 03:33:21;;;;;;;2.83;0.38;;;;;;;;;;2041134;29;20501;-45
2024/03/09 03:34:22;;;;;;;1.48;0.30;;;;;;;;;;2041644;28;20099;-45
2024/03/09 03:35:25;;;;;;;1.58;0.30;;;;;;;;;;2047207;28;20442;-45
2024/03/09 03:36:26;;;;;;;4.63;0.50;;;;;;;;;;2048846;28;20027;-43
2024/03/09 03:37:29;;;;;;;3.63;0.57;;;;;;;;;;2045840;28;20033;-45
2024/03/09 03:38:30;;;;;;;3.08;0.43;;;;;;;;;;2048439;29;20425;-45
2024/03/09 03:39:31;;;;;;;2.45;0.43;;;;;;;;;;2053797;28;20054;-46
2024/03/09 03:40:33;;;;;;;2.08;0.30;;;;;;;;;;2043239;29;20028;-46
2024/03/09 03:41:36;;;;;;;3.25;0.57;;;;;;;;;;2047068;29;20023;-45
2024/03/09 03:42:37;;;;;;;2.17;0.40;;;;;;;;;;2043697;29;20106;-44
2024/03/09 03:43:38;;;;;;;2.72;0.40;;;;;;;;;;2042363;29;20084;-44
2024/03/09 03:44:41;;;;;;;3.00;0.65;;;;;;;;;;2046353;28;20449;-45
2024/03/09 03:45:42;;;;;;;1.92;0.35;;;;;;;;;;2045827;28;20522;-45
2024/03/09 03:46:44;;;;;;;2.63;0.70;;;;;;;;;;2048626;28;20027;-45
2024/03/09 03:47:46;;;;;;;4.50;0.98;;;;;;;;;;2043309;28;20093;-45
2024/03/09 03:48:47;;;;;;;5.90;0.55;;;;;;;;;;2048434;29;20023;-43
2024/03/09 03:49:48;;;;;;;3.33;0.40;;;;;;;;;;2048249;29;20026;-45
2024/03/09 03:50:50;;;;;;;2.47;0.75;;;;;;;;;;2048783;29;20106;-46
2024/03/09 03:51:51;;;;;;;3.88;0.55;;;;;;;;;;2048957;28;20102;-45
2024/03/09 03:52:53;;;;;;;3.63;0.60;;;;;;;;;;2048329;29;20023;-46
2024/03/09 03:53:56;;;;;;;4.20;0.60;;;;;;;;;;2053799;28;20034;-45
2024/03/09 03:54:58;;;;;;;3.63;0.55;;;;;;;;;;2051524;28;20030;-43
2024/03/09 03:55:59;;;;;;;5.57;0.70;;;;;;;;;;2053903;28;20024;-45
2024/03/09 03:57:01;;;;;;;5.00;0.70;;;;;;;;;;2048951;28;20439;-45
2024/03/09 03:58:02;;;;;;;3.13;0.43;;;;;;;;;;2048987;28;20075;-45
2024/03/09 03:59:03;;;;;;;3.67;0.40;;;;;;;;;;2048533;28;20035;-46
2024/03/09 04:00:09;;;;;;;4.00;0.70;;;;;;;;;;2055872;28;20500;-45
2024/03/09 04:01:11;;;;;;;5.38;0.98;;;;;;;;;;2048460;28;20484;-44
2024/03/09 04:02:13;;;;;;;4.68;0.65;;;;;;;;;;2048858;28;20525;-45
2024/03/09 04:03:20;;;;;;;4.57;0.68;;;;;;;;;;2048798;28;20030;-45
2024/03/09 04:04:21;;;;;;;4.75;0.70;;;;;;;;;;2046923;28;20069;-44
2024/03/09 04:05:24;;;;;;;3.85;0.77;;;;;;;;;;2048166;29;20033;-46
2024/03/09 04:06:26;;;;;;;2.47;0.98;;;;;;;;;;2048571;28;20015;-45
2024/03/09 04:07:27;;;;;;;4.35;1.15;;;;;;;;;;2048835;28;20038;-44
2024/03/09 04:08:28;;;;;;;5.93;0.90;;;;;;;;;;2049085;29;20023;-45
2024/03/09 04:09:30;;;;;;;4.47;0.50;;;;;;;;;;2048607;29;20031;-44
2024/03/09 04:10:32;;;;;;;4.10;0.85;;;;;;;;;;2048485;28;20051;-46
2024/03/09 04:11:33;;;;;;;3.88;0.95;;;;;;;;;;2048873;29;20103;-44
2024/03/09 04:12:40;;;;;;;3.17;0.50;;;;;;;;;;2048530;28;20045;-44
2024/03/09 04:13:42;;;;;;;2.90;0.75;;;;;;;;;;2048552;28;20046;-45
2024/03/09 04:14:43;;;;;;;4.80;1.00;;;;;;;;;;2048769;29;20019;-45
2024/03/09 04:15:45;;;;;;;3.15;0.50;;;;;;;;;;2048562;28;20035;-45
2024/03/09 04:16:46;;;;;;;3.55;0.80;;;;;;;;;;2040154;29;20426;-44
2024/03/09 04:17:48;;;;;;;5.93;0.85;;;;;;;;;;2040165;29;20035;-45
2024/03/09 04:18:49;;;;;;;6.88;0.90;;;;;;;;;;2044771;28;20031;-44
2024/03/09 04:19:51;;;;;;;4.57;0.90;;;;;;;;;;2048344;28;20222;-44
2024/03/09 04:20:53;;;;;;;4.82;1.05;;;;;;;;;;2047954;29;20028;-45
2024/03/09 04:21:55;;;;;;;5.25;1.00;;;;;;;;;;2047739;28;20037;-44
2024/03/09 04:22:56;;;;;;;7.68;0.93;;;;;;;;;;2047830;28;20074;-44
2024/03/09 04:23:57;;;;;;;2.42;0.70;;;;;;;;;;2055080;28;20034;-45
2024/03/09 04:25:02;;;;;;;4.75;0.80;;;;;;;;;;2050918;28;20630;-49
2024/03/09 04:26:04;;;;;;;4.70;0.90;;;;;;;;;;2048517;28;20063;-49
2024/03/09 04:27:10;;;;;;;5.25;0.82;;;;;;;;;;2048484;28;20498;-42
2024/03/09 04:28:16;;;;;;;6.07;1.50;;;;;;;;;;2048029;28;20062;-45
2024/03/09 04:29:18;;;;;;;6.13;1.08;;;;;;;;;;2044809;28;20032;-47
2024/03/09 04:30:23;;;;;;;4.70;0.93;;;;;;;;;;2048455;28;20054;-43
2024/03/09 04:31:24;;;;;;;5.90;0.80;;;;;;;;;;2044946;28;20028;-43
2024/03/09 04:32:27;;;;;;;3.03;0.75;;;;;;;;;;2041026;28;20097;-43
2024/03/09 04:33:28;;;;;;;5.25;0.93;;;;;;;;;;2047699;28;20057;-43
2024/03/09 04:34:33;;;;;;;5.75;0.80;;;;;;;;;;2047851;28;20023;-43
2024/03/09 04:35:35;;;;;;;5.85;0.95;;;;;;;;;;2048335;28;20099;-43
2024/03/09 04:36:37;;;;;;;4.57;0.90;;;;;;;;;;2047803;28;20402;-43
2024/03/09 04:37:38;;;;;;;8.13;0.88;;;;;;;;;;2048804;28;20477;-44
2024/03/09 04:38:39;;;;;;;5.45;1.48;;;;;;;;;;2048327;28;20027;-43
2024/03/09 04:39:43;;;;;;;4.78;1.00;;;;;;;;;;2050758;28;20027;-44
2024/03/09 04:40:48;;;;;;;5.30;1.05;;;;;;;;;;2045985;28;20023;-45
2024/03/09 04:41:54;;;;;;;5.30;0.90;;;;;;;;;;2052444;28;20089;-45
2024/03/09 04:42:55;;;;;;;4.63;0.82;;;;;;;;;;2048328;28;20395;-44
2024/03/09 04:43:56;;;;;;;6.07;1.25;;;;;;;;;;2048658;28;20039;-46
2024/03/09 04:44:58;;;;;;;7.53;1.02;;;;;;;;;;2045485;28;20015;-45
2024/03/09 04:46:00;;;;;;;2.30;0.90;;;;;;;;;;2047857;28;20118;-45
2024/03/09 04:47:01;;;;;;;5.88;1.33;;;;;;;;;;2040185;29;20016;-44
2024/03/09 04:48:04;;;;;;;8.77;1.40;;;;;;;;;;2045930;28;20039;-45
2024/03/09 04:49:05;;;;;;;5.25;1.08;;;;;;;;;;2048766;28;20027;-45
2024/03/09 04:50:08;;;;;;;4.93;0.93;;;;;;;;;;2048271;29;20562;-44
2024/03/09 04:51:12;;;;;;;5.53;1.02;;;;;;;;;;2051999;28;20072;-46
2024/03/09 04:52:13;;;;;;;6.93;0.88;;;;;;;;;;2054016;28;20023;-45
2024/03/09 04:53:14;;;;;;;2.95;0.52;;;;;;;;;;2048414;28;20019;-45
2024/03/09 04:54:18;;;;;;;3.92;0.95;;;;;;;;;;2051361;28;20048;-44
2024/03/09 04:55:29;;;;;;;5.97;1.13;;;;;;;;;;2047641;28;20074;-45
2024/03/09 04:56:31;;;;;;;4.47;0.90;;;;;;;;;;2041647;29;20019;-45
2024/03/09 04:57:38;;;;;;;3.83;0.60;;;;;;;;;;2046292;28;20022;-44
2024/03/09 04:58:39;;;;;;;5.45;1.05;;;;;;;;;;2048690;28;20023;-45
2024/03/09 04:59:43;;;;;;;7.18;0.88;;;;;;;;;;2047942;29;20079;-45
2024/03/09 05:00:45;;;;;;;6.53;0.90;;;;;;;;;;2047861;29;20033;-44
2024/03/09 05:01:46;;;;;;;7.40;1.08;;;;;;;;;;2044851;29;20070;-45
2024/03/09 05:02:49;;;;;;;7.40;0.63;;;;;;;;;;2048577;28;20027;-44
2024/03/09 05:03:50;;;;;;;4.18;0.85;;;;;;;;;;2048465;28;20517;-45
2024/03/09 05:04:52;;;;;;;5.15;0.90;;;;;;;;;;2048679;28;20023;-45
2024/03/09 05:05:53;;;;;;;5.10;1.05;;;;;;;;;;2048472;28;20147;-44
2024/03/09 05:06:54;;;;;;;4.90;0.70;;;;;;;;;;2050627;28;20098;-44
2024/03/09 05:07:56;;;;;;;7.85;1.23;;;;;;;;;;2050606;28;20094;-44
2024/03/09 05:08:57;;;;;;;6.22;0.70;;;;;;;;;;2048380;28;20034;-44
2024/03/09 05:09:58;;;;;;;5.45;0.90;;;;;;;;;;2048422;28;20090;-45
2024/03/09 05:11:00;;;;;;;6.03;0.90;;;;;;;;;;2048388;29;20023;-45
2024/03/09 05:12:01;;;;;;;4.88;0.93;;;;;;;;;;2046889;28;20019;-45
2024/03/09 05:13:03;;;;;;;4.80;1.02;;;;;;;;;;2047759;29;20026;-45
2024/03/09 05:14:04;;;;;;;3.92;0.82;;;;;;;;;;2048304;28;20031;-45
2024/03/09 05:15:06;;;;;;;8.38;1.10;;;;;;;;;;2048364;28;20035;-45
2024/03/09 05:16:08;;;;;;;8.48;1.08;;;;;;;;;;2048203;28;20331;-45
2024/03/09 05:17:09;;;;;;;7.55;1.48;;;;;;;;;;2048279;28;20062;-44
2024/03/09 05:18:11;;;;;;;5.85;0.80;;;;;;;;;;2048187;28;20482;-45
2024/03/09 05:19:12;;;;;;;4.07;0.80;;;;;;;;;;2048653;28;20391;-45
2024/03/09 05:20:31;;;;;;;3.35;0.65;;;;;;;;;;2048469;28;20042;-44
2024/03/09 05:21:34;;;;;;;5.88;1.20;;;;;;;;;;2048451;28;20035;-45
2024/03/09 05:22:35;;;;;;;3.55;0.70;;;;;;;;;;2047519;29;20035;-47
2024/03/09 05:23:37;;;;;;;7.65;1.10;;;;;;;;;;2047645;28;20445;-46
2024/03/09 05:24:38;;;;;;;5.72;1.20;;;;;;;;;;2049509;28;20027;-45
2024/03/09 05:25:40;;;;;;;4.50;0.80;;;;;;;;;;2056488;28;20031;-46
2024/03/09 05:26:42;;;;;;;6.72;0.68;;;;;;;;;;2050978;28;20027;-45
2024/03/09 05:27:44;;;;;;;5.65;1.00;;;;;;;;;;2048275;28;20023;-45
2024/03/09 05:28:45;;;;;;;4.47;1.17;;;;;;;;;;2047224;28;20075;-44
2024/03/09 05:29:46;;;;;;;4.25;0.70;;;;;;;;;;2047532;28;20059;-46
2024/03/09 05:30:48;;;;;;;5.63;0.90;;;;;;;;;;2048720;29;20024;-45
2024/03/09 05:31:49;;;;;;;5.88;1.30;;;;;;;;;;2046406;28;20019;-45
2024/03/09 05:32:53;;;;;;;5.03;0.68;;;;;;;;;;2048396;29;20035;-44
2024/03/09 05:33:54;;;;;;;4.80;1.20;;;;;;;;;;2047200;28;20059;-43
2024/03/09 05:34:56;;;;;;;4.15;0.80;;;;;;;;;;2045317;29;20172;-45
2024/03/09 05:35:57;;;;;;;4.30;1.23;;;;;;;;;;2047452;28;20479;-44
2024/03/09 05:37:05;;;;;;;5.38;0.90;;;;;;;;;;2055865;28;20386;-44
2024/03/09 05:38:08;;;;;;;4.38;0.95;;;;;;;;;;2049428;28;20034;-42
2024/03/09 05:39:13;;;;;;;6.00;1.10;;;;;;;;;;2049841;28;20458;-42
2024/03/09 05:40:15;;;;;;;4.30;1.00;;;;;;;;;;2056495;28;20026;-42
2024/03/09 05:41:17;;;;;;;3.63;0.88;;;;;;;;;;2055437;28;20030;-42
2024/03/09 05:42:18;;;;;;;2.92;0.65;;;;;;;;;;2048787;28;20027;-42
2024/03/09 05:43:20;;;;;;;4.60;0.60;;;;;;;;;;2047488;28;20023;-42
2024/03/09 05:44:22;;;;;;;3.72;0.77;;;;;;;;;;2048273;29;20027;-41
2024/03/09 05:45:23;;;;;;;6.18;0.80;;;;;;;;;;2048375;28;20050;-42
2024/03/09 05:46:25;;;;;;;3.67;0.60;;;;;;;;;;2043375;28;20199;-41
2024/03/09 05:47:26;;;;;;;5.30;0.80;;;;;;;;;;2043361;28;20074;-43
2024/03/09 05:48:27;;;;;;;3.67;0.50;;;;;;;;;;2042771;28;20024;-42
2024/03/09 05:49:29;;;;;;;3.67;0.75;;;;;;;;;;2047136;29;20173;-42
2024/03/09 05:50:30;;;;;;;5.22;0.98;;;;;;;;;;2043583;28;20019;-43
2024/03/09 05:51:32;;;;;;;2.67;0.60;;;;;;;;;;2049486;28;20027;-42
2024/03/09 05:52:34;;;;;;;3.20;0.68;;;;;;;;;;2049256;28;20455;-43
2024/03/09 05:53:36;;;;;;;4.30;0.70;;;;;;;;;;2049013;29;20506;-42
2024/03/09 05:54:37;;;;;;;5.07;0.63;;;;;;;;;;2049814;28;20031;-42
2024/03/09 05:55:39;;;;;;;2.92;0.30;;;;;;;;;;2049892;29;20020;-42
2024/03/09 05:56:40;;;;;;;5.10;0.75;;;;;;;;;;2049931;28;20086;-42
2024/03/09 05:57:48;;;;;;;2.25;0.40;;;;;;;;;;2049248;28;20025;-42
2024/03/09 05:58:50;;;;;;;1.98;0.47;;;;;;;;;;2048933;28;20529;-42
2024/03/09 05:59:52;;;;;;;4.65;0.77;;;;;;;;;;2049371;29;20023;-42
2024/03/09 06:00:53;;;;;;;4.60;1.08;;;;;;;;;;2049074;28;20501;-42
2024/03/09 06:01:54;;;;;;;3.20;0.30;;;;;;;;;;2048926;28;20019;-43
2024/03/09 06:02:56;;;;;;;2.03;0.38;;;;;;;;;;2049279;29;20098;-42
2024/03/09 06:03:59;;;;;;;2.63;0.60;;;;;;;;;;2049521;29;20046;-43
2024/03/09 06:05:00;;;;;;;2.85;0.55;;;;;;;;;;2050269;28;20502;-43
2024/03/09 06:06:01;;;;;;;2.53;0.60;;;;;;;;;;2056747;28;20062;-43
2024/03/09 06:07:03;;;;;;;1.88;0.32;;;;;;;;;;2049376;28;20551;-45
2024/03/09 06:08:04;;;;;;;2.88;0.32;;;;;;;;;;2048864;29;20031;-44
2024/03/09 06:09:06;;;;;;;3.88;0.50;;;;;;;;;;2048790;28;20030;-45
2024/03/09 06:10:08;;;;;;;2.67;0.57;;;;;;;;;;2048899;28;20039;-43
2024/03/09 06:11:09;;;;;;;0.77;0.20;;;;;;;;;;2049495;28;20028;-44
2024/03/09 06:12:12;;;;;;;4.22;0.60;;;;;;;;;;2049474;28;20043;-44
2024/03/09 06:13:17;;;;;;;2.97;0.45;;;;;;;;;;2050110;28;20029;-44
2024/03/09 06:14:20;;;;;;;1.63;0.40;;;;;;;;;;2049561;28;20046;-45